Terminal Aerodrome Forecast
Issued by NWS Sterling, VA

Home | Current Version | Previous Version | Text Only | Print | Product List | Glossary On
Versions: 1 2 3 4 5 6 7 8 9 10 11 12 13 14 15 16 17 18 19 20 21 22
820
FTUS41 KLWX 211812 AAA
TAFCHO
TAF AMD
KCHO 211812Z 2118/2218 17005KT 1SM BR OVC002
      TEMPO 2118/2121 OVC005
     FM220000 VRB03KT 3/4SM -DZ OVC001
     FM221500 07004KT 5SM -RA OVC008=

USA.gov is the U.S. government's official web portal to all federal, state and local government web resources and services.